createdAt,value
2023-04-29T00:28:55.935Z,29.52
2023-04-29T01:29:07.323Z,24.04
2023-04-29T01:59:10.079Z,68.01
2023-04-29T02:29:12.814Z,62.66
2023-04-29T02:59:13.217Z,38.90
2023-04-29T03:29:17.728Z,16.47
2023-04-29T03:59:17.895Z,24.03
2023-04-29T04:29:20.850Z,25.63
2023-04-29T04:59:23.617Z,27.12
2023-04-29T05:29:26.100Z,19.56
2023-04-29T05:59:26.203Z,13.43
2023-04-29T06:29:31.768Z,17.66
2023-04-29T06:59:31.911Z,17.84
2023-04-29T07:29:34.462Z,13.59
2023-04-29T08:25:23.036Z,11.69
2023-04-29T08:55:23.144Z,12.77
2023-04-29T09:25:23.618Z,13.73
2023-04-29T10:14:24.056Z,21.32
2023-04-29T10:44:24.196Z,30.60
2023-04-29T11:14:26.665Z,24.25
2023-04-29T11:44:30.030Z,18.29
2023-04-29T12:14:35.171Z,14.01
2023-04-29T12:44:40.205Z,12.25
2023-04-29T13:14:42.710Z,10.81
2023-04-29T13:44:53.196Z,9.26
2023-04-29T14:14:52.103Z,8.28
2023-04-29T14:44:55.239Z,7.10
2023-04-29T15:14:57.509Z,7.18
2023-04-29T15:45:00.595Z,7.58
2023-04-29T16:15:04.278Z,7.07
2023-04-29T16:45:09.041Z,8.67
2023-04-29T17:15:10.894Z,11.58
2023-04-29T17:45:19.299Z,11.34
2023-04-29T18:15:21.046Z,10.59
2023-04-29T18:45:25.378Z,26.69
2023-04-29T19:15:31.327Z,67.89
2023-04-29T19:45:28.560Z,33.46
2023-04-29T20:15:29.251Z,29.73
2023-04-29T20:45:32.890Z,24.43
2023-04-29T21:15:33.300Z,19.45
2023-04-29T21:45:35.016Z,13.63
2023-04-29T22:15:36.941Z,13.61
2023-04-29T22:45:40.503Z,15.13
2023-04-29T23:15:44.618Z,13.72
2023-04-29T23:45:47.679Z,14.56
